Hjaltland — VSTY8 — position and weather

sailwx.info

Track history (hours):
 
Tides and Currents Weather Stations Pressure Air Temp Water Temp Dewpoint Dewpoint Depression Visibility Wind Speed Wind Dir Waves Ship Positions

Hjaltland

Operator: NorthLink Orkey & Shetland Ferries Ltd

Last reported at 2017-Nov-19 02:59 UTC. Time now 2017-Nov-19 03:11 UTC.
Position N 59°04' W 002°28'.

Type: Passenger vessel. MMSI: 235450000.

Date/timePositionNaut miles runAvg speedWind from/ knotsBaromVisibWave heightAir tempDewpointWater temp
2017-Nov-19 02:59N 59°04' W 002°28'714.7
2017-Nov-19 02:30N 59°01' W 002°40'815.3
2017-Nov-19 02:00N 59°01' W 002°55'2 1.7
2017-Nov-19 00:39N 58°60' W 002°58'1 8.4
2017-Nov-19 00:30N 59°01' W 002°57'918.7
2017-Nov-19 00:00N 58°59' W 002°39'7017.7
2017-Nov-18 20:05N 57°52' W 002°00'316.4
2017-Nov-18 19:54N 57°50' W 001°59'512.5
2017-Nov-18 19:30N 57°46' W 001°53'713.6
2017-Nov-18 19:00N 57°41' W 001°44'816.5
2017-Nov-18 18:30N 57°33' W 001°41'1121.0
2017-Nov-18 17:59N 57°22' W 001°45'1022.1
2017-Nov-18 17:30N 57°13' W 001°56'713.2
2017-Nov-18 17:00N 57°09' W 002°05'0 0.6
2017-Nov-18 16:30N 57°09' W 002°05'0 0.0
2017-Nov-18 16:00N 57°09' W 002°05'0 0.0
2017-Nov-18 15:30N 57°09' W 002°05'0 0.0
2017-Nov-18 15:00N 57°09' W 002°05'0 0.0
2017-Nov-18 14:30N 57°09' W 002°05'0 0.0
2017-Nov-18 14:00N 57°09' W 002°05'0 0.0
2017-Nov-18 13:30N 57°09' W 002°05'0 0.0
2017-Nov-18 13:00N 57°09' W 002°05'0 0.0
2017-Nov-18 12:30N 57°09' W 002°05'0 0.0
2017-Nov-18 12:00N 57°09' W 002°05'0 0.0
2017-Nov-18 11:30N 57°09' W 002°05'0 0.0
2017-Nov-18 11:00N 57°09' W 002°05'0 0.0
2017-Nov-18 10:28N 57°09' W 002°05'0 0.0
2017-Nov-18 09:58N 57°09' W 002°05'0 0.0
2017-Nov-18 09:28N 57°09' W 002°05'0 0.0
2017-Nov-18 08:58N 57°09' W 002°05'0 0.0
2017-Nov-18 08:28N 57°09' W 002°05'0 0.0
2017-Nov-18 07:58N 57°09' W 002°05'0 0.0
2017-Nov-18 07:28N 57°09' W 002°05'0 0.0
2017-Nov-18 06:59N 57°09' W 002°05'1 1.3
2017-Nov-18 06:31N 57°08' W 002°04'713.3
2017-Nov-18 06:00N 57°13' W 001°55'1814.6
2017-Nov-18 04:48N 57°28' W 001°38'514.9
2017-Nov-18 04:26N 57°33' W 001°38'614.9
2017-Nov-18 04:00N 57°39' W 001°39'916.8
2017-Nov-18 03:30N 57°47' W 001°45'7019.3
2017-Nov-17 23:51N 58°53' W 002°35'721.0
2017-Nov-17 23:30N 58°59' W 002°41'917.6
2017-Nov-17 23:00N 59°01' W 002°57'1 0.0
2017-Nov-17 00:04N 58°60' W 002°58'0 0.5
2017-Nov-17 00:00N 58°60' W 002°58'612.4
2017-Nov-16 23:30N 59°00' W 002°46'7317.7
2017-Nov-16 19:23N 57°53' W 001°51'719.2
2017-Nov-16 19:00N 57°46' W 001°47'1020.8
2017-Nov-16 18:30N 57°36' W 001°41'1321.8
2017-Nov-16 17:56N 57°24' W 001°44'922.1
2017-Nov-16 17:30N 57°15' W 001°50'1019.6
2017-Nov-16 17:00N 57°09' W 002°04'1 1.7
2017-Nov-16 16:28N 57°09' W 002°05'0 0.0
2017-Nov-16 15:58N 57°09' W 002°05'0 0.0
2017-Nov-16 15:28N 57°09' W 002°05'0 0.0
2017-Nov-16 14:58N 57°09' W 002°05'0 0.0
2017-Nov-16 14:28N 57°09' W 002°05'0 0.0
2017-Nov-16 13:58N 57°09' W 002°05'0 0.0
2017-Nov-16 13:28N 57°09' W 002°05'0 0.0
2017-Nov-16 12:58N 57°09' W 002°05'0 0.0
2017-Nov-16 12:28N 57°09' W 002°05'0 0.0
2017-Nov-16 11:58N 57°09' W 002°05'0 0.0
2017-Nov-16 11:28N 57°09' W 002°05'0 0.0
2017-Nov-16 10:58N 57°09' W 002°05'0 0.0
2017-Nov-16 10:28N 57°09' W 002°05'0 0.0
2017-Nov-16 09:58N 57°09' W 002°05'0 0.0
2017-Nov-16 09:28N 57°09' W 002°05'0 0.0
2017-Nov-16 08:58N 57°09' W 002°05'0 0.0
2017-Nov-16 08:28N 57°09' W 002°05'0 0.1
2017-Nov-16 08:00N 57°09' W 002°05'2 4.2
2017-Nov-16 07:30N 57°10' W 002°02'1020.0
2017-Nov-16 07:00N 57°18' W 001°51'2018.5
2017-Nov-16 05:54N 57°37' W 001°38'718.5
2017-Nov-16 05:30N 57°44' W 001°43'8118.9
2017-Nov-16 01:14N 58°59' W 002°39'417.4
2017-Nov-16 01:00N 59°00' W 002°46'612.3
2017-Nov-16 00:30N 58°60' W 002°58'0 0.0
2017-Nov-15 22:48N 58°60' W 002°58'1 3.7
2017-Nov-15 22:30N 59°01' W 002°57'1019.5
2017-Nov-15 22:00N 59°01' W 002°39'92 3.7
2017-Nov-14 21:31N 57°35' W 001°37'011.8
2017-Nov-14 21:29N 57°34' W 001°37'612.0
2017-Nov-14 21:00N 57°29' W 001°38'1112.7
2017-Nov-14 20:08N 57°19' W 001°48'213.2
2017-Nov-14 20:00N 57°18' W 001°50'713.3
2017-Nov-14 19:30N 57°12' W 001°57'611.1
2017-Nov-14 19:00N 57°09' W 002°05'0 0.9
2017-Nov-14 18:29N 57°09' W 002°05'0 0.0
2017-Nov-14 17:59N 57°09' W 002°05'0 0.0
2017-Nov-14 17:29N 57°09' W 002°05'0 0.0
2017-Nov-14 16:59N 57°09' W 002°05'0 0.0
2017-Nov-14 16:29N 57°09' W 002°05'0 0.0
2017-Nov-14 15:59N 57°09' W 002°05'0 0.0
2017-Nov-14 15:29N 57°09' W 002°05'0 0.0
2017-Nov-14 14:59N 57°09' W 002°05'0 0.0
2017-Nov-14 14:29N 57°09' W 002°05'0 0.0
2017-Nov-14 13:59N 57°09' W 002°05'0 0.0
2017-Nov-14 13:29N 57°09' W 002°05'0 0.0
2017-Nov-14 12:59N 57°09' W 002°05'0 0.0
2017-Nov-14 12:29N 57°09' W 002°05'0 0.0
2017-Nov-14 11:59N 57°09' W 002°05'0 0.0
2017-Nov-14 11:29N 57°09' W 002°05'0 0.0
2017-Nov-14 10:59N 57°09' W 002°05'0 0.0
2017-Nov-14 10:29N 57°09' W 002°05'0 0.0
2017-Nov-14 09:59N 57°09' W 002°05'0 0.0
2017-Nov-14 09:29N 57°09' W 002°05'0 0.0
2017-Nov-14 08:59N 57°09' W 002°05'0 0.0
2017-Nov-14 08:29N 57°09' W 002°05'0 0.0
2017-Nov-14 07:59N 57°09' W 002°05'0 0.0
2017-Nov-14 07:29N 57°09' W 002°05'0 0.0
2017-Nov-14 06:59N 57°09' W 002°05'1 1.2
2017-Nov-14 06:30N 57°09' W 002°04'612.2
2017-Nov-14 06:01N 57°13' W 001°57'815.2
2017-Nov-14 05:31N 57°19' W 001°48'1716.5
2017-Nov-14 04:29N 57°35' W 001°36'917.0
2017-Nov-14 03:56N 57°44' W 001°37'717.0
2017-Nov-14 03:30N 57°51' W 001°37'80 3.1
2017-Nov-13 02:00N 59°01' W 002°53'3 2.8
2017-Nov-13 00:53N 58°60' W 002°58'4 8.9
2017-Nov-13 00:29N 59°01' W 002°52'918.1
2017-Nov-13 00:00N 58°56' W 002°37'6718.3
2017-Nov-12 20:20N 57°52' W 001°58'517.0
2017-Nov-12 20:00N 57°47' W 001°53'917.1
2017-Nov-12 19:30N 57°40' W 001°45'713.4
2017-Nov-12 19:00N 57°33' W 001°41'1412.8
2017-Nov-12 17:56N 57°20' W 001°45'818.8
2017-Nov-12 17:30N 57°14' W 001°54'815.1
2017-Nov-12 17:00N 57°09' W 002°04'1 1.0
2017-Nov-12 16:28N 57°09' W 002°05'0 0.0
2017-Nov-12 15:58N 57°09' W 002°05'0 0.0
2017-Nov-12 15:28N 57°09' W 002°05'0 0.0
2017-Nov-12 14:58N 57°09' W 002°05'0 0.0
2017-Nov-12 14:28N 57°09' W 002°05'0 0.0
2017-Nov-12 13:58N 57°09' W 002°05'0 0.0
2017-Nov-12 13:28N 57°09' W 002°05'0 0.0
2017-Nov-12 12:58N 57°09' W 002°05'0 0.0
2017-Nov-12 12:28N 57°09' W 002°05'0 0.0
2017-Nov-12 11:58N 57°09' W 002°05'0 0.0
2017-Nov-12 11:28N 57°09' W 002°05'0 0.0
2017-Nov-12 10:58N 57°09' W 002°05'0 0.0
2017-Nov-12 10:28N 57°09' W 002°05'0 0.0
2017-Nov-12 09:58N 57°09' W 002°05'0 0.0
2017-Nov-12 09:28N 57°09' W 002°05'0 0.0
2017-Nov-12 08:58N 57°09' W 002°05'0 0.0
2017-Nov-12 08:28N 57°09' W 002°05'0 0.0
2017-Nov-12 07:58N 57°09' W 002°05'0 0.0
2017-Nov-12 07:28N 57°09' W 002°05'0 0.0
2017-Nov-12 06:58N 57°09' W 002°05'1 1.2
2017-Nov-12 06:30N 57°09' W 002°04'612.4
2017-Nov-12 06:00N 57°12' W 001°55'2115.7
2017-Nov-12 04:40N 57°31' W 001°37'1116.3
2017-Nov-12 04:01N 57°41' W 001°35'216.6
2017-Nov-12 03:54N 57°43' W 001°35'716.5
2017-Nov-12 03:30N 57°50' W 001°35'3 0.1
2017-Nov-10 22:00N 57°52' W 001°36'817.0
2017-Nov-10 21:30N 57°44' W 001°37'917.8
2017-Nov-10 21:00N 57°35' W 001°37'1416.7
2017-Nov-10 20:11N 57°22' W 001°43'316.4
2017-Nov-10 19:59N 57°19' W 001°46'816.3
2017-Nov-10 19:31N 57°13' W 001°54'713.7
2017-Nov-10 19:00N 57°08' W 002°04'1 1.3
2017-Nov-10 18:30N 57°09' W 002°05'0 0.0
2017-Nov-10 18:00N 57°09' W 002°05'0 0.0
2017-Nov-10 17:30N 57°09' W 002°05'0 0.0
2017-Nov-10 17:00N 57°09' W 002°05'0 0.0
2017-Nov-10 16:30N 57°09' W 002°05'0 0.0
2017-Nov-10 16:00N 57°09' W 002°05'0 0.0
2017-Nov-10 15:30N 57°09' W 002°05'0 0.0
2017-Nov-10 15:00N 57°09' W 002°05'0 0.0
2017-Nov-10 14:30N 57°09' W 002°05'0 0.0
2017-Nov-10 14:00N 57°09' W 002°05'0 0.0
2017-Nov-10 13:30N 57°09' W 002°05'0 0.0
2017-Nov-10 13:00N 57°09' W 002°05'0 0.0
2017-Nov-10 12:30N 57°09' W 002°05'0 0.0
2017-Nov-10 12:00N 57°09' W 002°05'0 0.0
2017-Nov-10 11:28N 57°09' W 002°05'0 0.0
2017-Nov-10 10:58N 57°09' W 002°05'0 0.0
2017-Nov-10 10:25N 57°09' W 002°05'0 0.0
2017-Nov-10 09:58N 57°09' W 002°05'0 0.0
2017-Nov-10 09:28N 57°09' W 002°05'0 0.0
2017-Nov-10 08:58N 57°09' W 002°05'0 0.0
2017-Nov-10 08:28N 57°09' W 002°05'0 0.0
2017-Nov-10 07:58N 57°09' W 002°05'0 0.0
2017-Nov-10 07:28N 57°09' W 002°05'0 0.0
2017-Nov-10 07:00N 57°09' W 002°05'1 1.1
2017-Nov-10 06:30N 57°08' W 002°04'713.8
2017-Nov-10 06:00N 57°13' W 001°55'1418.2
2017-Nov-10 05:13N 57°25' W 001°40'2517.9
2017-Nov-10 03:50N 57°50' W 001°35'  
Track history (hours):
 
Tides and Currents Weather Stations Pressure Air Temp Water Temp Dewpoint Dewpoint Depression Visibility Wind Speed Wind Dir Waves Ship Positions

Hjaltland

Operator: NorthLink Orkey & Shetland Ferries Ltd

Last reported at 2017-Nov-19 02:59 UTC. Time now 2017-Nov-19 03:11 UTC.
Position N 59°04' W 002°28'.

Type: Passenger vessel. MMSI: 235450000.

Date/timePositionNaut miles runAvg speedWind from/ knotsBaromVisibWave heightAir tempDewpointWater temp
2017-Nov-19 02:59N 59°04' W 002°28'714.7
2017-Nov-19 02:30N 59°01' W 002°40'815.3
2017-Nov-19 02:00N 59°01' W 002°55'2 1.7
2017-Nov-19 00:39N 58°60' W 002°58'1 8.4
2017-Nov-19 00:30N 59°01' W 002°57'918.7
2017-Nov-19 00:00N 58°59' W 002°39'7017.7
2017-Nov-18 20:05N 57°52' W 002°00'316.4
2017-Nov-18 19:54N 57°50' W 001°59'512.5
2017-Nov-18 19:30N 57°46' W 001°53'713.6
2017-Nov-18 19:00N 57°41' W 001°44'816.5
2017-Nov-18 18:30N 57°33' W 001°41'1121.0
2017-Nov-18 17:59N 57°22' W 001°45'1022.1
2017-Nov-18 17:30N 57°13' W 001°56'713.2
2017-Nov-18 17:00N 57°09' W 002°05'0 0.6
2017-Nov-18 16:30N 57°09' W 002°05'0 0.0
2017-Nov-18 16:00N 57°09' W 002°05'0 0.0
2017-Nov-18 15:30N 57°09' W 002°05'0 0.0
2017-Nov-18 15:00N 57°09' W 002°05'0 0.0
2017-Nov-18 14:30N 57°09' W 002°05'0 0.0
2017-Nov-18 14:00N 57°09' W 002°05'0 0.0
2017-Nov-18 13:30N 57°09' W 002°05'0 0.0
2017-Nov-18 13:00N 57°09' W 002°05'0 0.0
2017-Nov-18 12:30N 57°09' W 002°05'0 0.0
2017-Nov-18 12:00N 57°09' W 002°05'0 0.0
2017-Nov-18 11:30N 57°09' W 002°05'0 0.0
2017-Nov-18 11:00N 57°09' W 002°05'0 0.0
2017-Nov-18 10:28N 57°09' W 002°05'0 0.0
2017-Nov-18 09:58N 57°09' W 002°05'0 0.0
2017-Nov-18 09:28N 57°09' W 002°05'0 0.0
2017-Nov-18 08:58N 57°09' W 002°05'0 0.0
2017-Nov-18 08:28N 57°09' W 002°05'0 0.0
2017-Nov-18 07:58N 57°09' W 002°05'0 0.0
2017-Nov-18 07:28N 57°09' W 002°05'0 0.0
2017-Nov-18 06:59N 57°09' W 002°05'1 1.3
2017-Nov-18 06:31N 57°08' W 002°04'713.3
2017-Nov-18 06:00N 57°13' W 001°55'1814.6
2017-Nov-18 04:48N 57°28' W 001°38'514.9
2017-Nov-18 04:26N 57°33' W 001°38'614.9
2017-Nov-18 04:00N 57°39' W 001°39'916.8
2017-Nov-18 03:30N 57°47' W 001°45'7019.3
2017-Nov-17 23:51N 58°53' W 002°35'721.0
2017-Nov-17 23:30N 58°59' W 002°41'917.6
2017-Nov-17 23:00N 59°01' W 002°57'1 0.0
2017-Nov-17 00:04N 58°60' W 002°58'0 0.5
2017-Nov-17 00:00N 58°60' W 002°58'612.4
2017-Nov-16 23:30N 59°00' W 002°46'7317.7
2017-Nov-16 19:23N 57°53' W 001°51'719.2
2017-Nov-16 19:00N 57°46' W 001°47'1020.8
2017-Nov-16 18:30N 57°36' W 001°41'1321.8
2017-Nov-16 17:56N 57°24' W 001°44'922.1
2017-Nov-16 17:30N 57°15' W 001°50'1019.6
2017-Nov-16 17:00N 57°09' W 002°04'1 1.7
2017-Nov-16 16:28N 57°09' W 002°05'0 0.0
2017-Nov-16 15:58N 57°09' W 002°05'0 0.0
2017-Nov-16 15:28N 57°09' W 002°05'0 0.0
2017-Nov-16 14:58N 57°09' W 002°05'0 0.0
2017-Nov-16 14:28N 57°09' W 002°05'0 0.0
2017-Nov-16 13:58N 57°09' W 002°05'0 0.0
2017-Nov-16 13:28N 57°09' W 002°05'0 0.0
2017-Nov-16 12:58N 57°09' W 002°05'0 0.0
2017-Nov-16 12:28N 57°09' W 002°05'0 0.0
2017-Nov-16 11:58N 57°09' W 002°05'0 0.0
2017-Nov-16 11:28N 57°09' W 002°05'0 0.0
2017-Nov-16 10:58N 57°09' W 002°05'0 0.0
2017-Nov-16 10:28N 57°09' W 002°05'0 0.0
2017-Nov-16 09:58N 57°09' W 002°05'0 0.0
2017-Nov-16 09:28N 57°09' W 002°05'0 0.0
2017-Nov-16 08:58N 57°09' W 002°05'0 0.0
2017-Nov-16 08:28N 57°09' W 002°05'0 0.1
2017-Nov-16 08:00N 57°09' W 002°05'2 4.2
2017-Nov-16 07:30N 57°10' W 002°02'1020.0
2017-Nov-16 07:00N 57°18' W 001°51'2018.5
2017-Nov-16 05:54N 57°37' W 001°38'718.5
2017-Nov-16 05:30N 57°44' W 001°43'8118.9
2017-Nov-16 01:14N 58°59' W 002°39'417.4
2017-Nov-16 01:00N 59°00' W 002°46'612.3
2017-Nov-16 00:30N 58°60' W 002°58'0 0.0
2017-Nov-15 22:48N 58°60' W 002°58'1 3.7
2017-Nov-15 22:30N 59°01' W 002°57'1019.5
2017-Nov-15 22:00N 59°01' W 002°39'92 3.7
2017-Nov-14 21:31N 57°35' W 001°37'011.8
2017-Nov-14 21:29N 57°34' W 001°37'612.0
2017-Nov-14 21:00N 57°29' W 001°38'1112.7
2017-Nov-14 20:08N 57°19' W 001°48'213.2
2017-Nov-14 20:00N 57°18' W 001°50'713.3
2017-Nov-14 19:30N 57°12' W 001°57'611.1
2017-Nov-14 19:00N 57°09' W 002°05'0 0.9
2017-Nov-14 18:29N 57°09' W 002°05'0 0.0
2017-Nov-14 17:59N 57°09' W 002°05'0 0.0
2017-Nov-14 17:29N 57°09' W 002°05'0 0.0
2017-Nov-14 16:59N 57°09' W 002°05'0 0.0
2017-Nov-14 16:29N 57°09' W 002°05'0 0.0
2017-Nov-14 15:59N 57°09' W 002°05'0 0.0
2017-Nov-14 15:29N 57°09' W 002°05'0 0.0
2017-Nov-14 14:59N 57°09' W 002°05'0 0.0
2017-Nov-14 14:29N 57°09' W 002°05'0 0.0
2017-Nov-14 13:59N 57°09' W 002°05'0 0.0
2017-Nov-14 13:29N 57°09' W 002°05'0 0.0
2017-Nov-14 12:59N 57°09' W 002°05'0 0.0
2017-Nov-14 12:29N 57°09' W 002°05'0 0.0
2017-Nov-14 11:59N 57°09' W 002°05'0 0.0
2017-Nov-14 11:29N 57°09' W 002°05'0 0.0
2017-Nov-14 10:59N 57°09' W 002°05'0 0.0
2017-Nov-14 10:29N 57°09' W 002°05'0 0.0
2017-Nov-14 09:59N 57°09' W 002°05'0 0.0
2017-Nov-14 09:29N 57°09' W 002°05'0 0.0
2017-Nov-14 08:59N 57°09' W 002°05'0 0.0
2017-Nov-14 08:29N 57°09' W 002°05'0 0.0
2017-Nov-14 07:59N 57°09' W 002°05'0 0.0
2017-Nov-14 07:29N 57°09' W 002°05'0 0.0
2017-Nov-14 06:59N 57°09' W 002°05'1 1.2
2017-Nov-14 06:30N 57°09' W 002°04'612.2
2017-Nov-14 06:01N 57°13' W 001°57'815.2
2017-Nov-14 05:31N 57°19' W 001°48'1716.5
2017-Nov-14 04:29N 57°35' W 001°36'917.0
2017-Nov-14 03:56N 57°44' W 001°37'717.0
2017-Nov-14 03:30N 57°51' W 001°37'80 3.1
2017-Nov-13 02:00N 59°01' W 002°53'3 2.8
2017-Nov-13 00:53N 58°60' W 002°58'4 8.9
2017-Nov-13 00:29N 59°01' W 002°52'918.1
2017-Nov-13 00:00N 58°56' W 002°37'6718.3
2017-Nov-12 20:20N 57°52' W 001°58'517.0
2017-Nov-12 20:00N 57°47' W 001°53'917.1
2017-Nov-12 19:30N 57°40' W 001°45'713.4
2017-Nov-12 19:00N 57°33' W 001°41'1412.8
2017-Nov-12 17:56N 57°20' W 001°45'818.8
2017-Nov-12 17:30N 57°14' W 001°54'815.1
2017-Nov-12 17:00N 57°09' W 002°04'1 1.0
2017-Nov-12 16:28N 57°09' W 002°05'0 0.0
2017-Nov-12 15:58N 57°09' W 002°05'0 0.0
2017-Nov-12 15:28N 57°09' W 002°05'0 0.0
2017-Nov-12 14:58N 57°09' W 002°05'0 0.0
2017-Nov-12 14:28N 57°09' W 002°05'0 0.0
2017-Nov-12 13:58N 57°09' W 002°05'0 0.0
2017-Nov-12 13:28N 57°09' W 002°05'0 0.0
2017-Nov-12 12:58N 57°09' W 002°05'0 0.0
2017-Nov-12 12:28N 57°09' W 002°05'0 0.0
2017-Nov-12 11:58N 57°09' W 002°05'0 0.0
2017-Nov-12 11:28N 57°09' W 002°05'0 0.0
2017-Nov-12 10:58N 57°09' W 002°05'0 0.0
2017-Nov-12 10:28N 57°09' W 002°05'0 0.0
2017-Nov-12 09:58N 57°09' W 002°05'0 0.0
2017-Nov-12 09:28N 57°09' W 002°05'0 0.0
2017-Nov-12 08:58N 57°09' W 002°05'0 0.0
2017-Nov-12 08:28N 57°09' W 002°05'0 0.0
2017-Nov-12 07:58N 57°09' W 002°05'0 0.0
2017-Nov-12 07:28N 57°09' W 002°05'0 0.0
2017-Nov-12 06:58N 57°09' W 002°05'1 1.2
2017-Nov-12 06:30N 57°09' W 002°04'612.4
2017-Nov-12 06:00N 57°12' W 001°55'2115.7
2017-Nov-12 04:40N 57°31' W 001°37'1116.3
2017-Nov-12 04:01N 57°41' W 001°35'216.6
2017-Nov-12 03:54N 57°43' W 001°35'716.5
2017-Nov-12 03:30N 57°50' W 001°35'3 0.1
2017-Nov-10 22:00N 57°52' W 001°36'817.0
2017-Nov-10 21:30N 57°44' W 001°37'917.8
2017-Nov-10 21:00N 57°35' W 001°37'1416.7
2017-Nov-10 20:11N 57°22' W 001°43'316.4
2017-Nov-10 19:59N 57°19' W 001°46'816.3
2017-Nov-10 19:31N 57°13' W 001°54'713.7
2017-Nov-10 19:00N 57°08' W 002°04'1 1.3
2017-Nov-10 18:30N 57°09' W 002°05'0 0.0
2017-Nov-10 18:00N 57°09' W 002°05'0 0.0
2017-Nov-10 17:30N 57°09' W 002°05'0 0.0
2017-Nov-10 17:00N 57°09' W 002°05'0 0.0
2017-Nov-10 16:30N 57°09' W 002°05'0 0.0
2017-Nov-10 16:00N 57°09' W 002°05'0 0.0
2017-Nov-10 15:30N 57°09' W 002°05'0 0.0
2017-Nov-10 15:00N 57°09' W 002°05'0 0.0
2017-Nov-10 14:30N 57°09' W 002°05'0 0.0
2017-Nov-10 14:00N 57°09' W 002°05'0 0.0
2017-Nov-10 13:30N 57°09' W 002°05'0 0.0
2017-Nov-10 13:00N 57°09' W 002°05'0 0.0
2017-Nov-10 12:30N 57°09' W 002°05'0 0.0
2017-Nov-10 12:00N 57°09' W 002°05'0 0.0
2017-Nov-10 11:28N 57°09' W 002°05'0 0.0
2017-Nov-10 10:58N 57°09' W 002°05'0 0.0
2017-Nov-10 10:25N 57°09' W 002°05'0 0.0
2017-Nov-10 09:58N 57°09' W 002°05'0 0.0
2017-Nov-10 09:28N 57°09' W 002°05'0 0.0
2017-Nov-10 08:58N 57°09' W 002°05'0 0.0
2017-Nov-10 08:28N 57°09' W 002°05'0 0.0
2017-Nov-10 07:58N 57°09' W 002°05'0 0.0
2017-Nov-10 07:28N 57°09' W 002°05'0 0.0
2017-Nov-10 07:00N 57°09' W 002°05'1 1.1
2017-Nov-10 06:30N 57°08' W 002°04'713.8
2017-Nov-10 06:00N 57°13' W 001°55'1418.2
2017-Nov-10 05:13N 57°25' W 001°40'2517.9
2017-Nov-10 03:50N 57°50' W 001°35'  

Dump ship's entire track history